sensor_id;sensor_type;location;lat;lon;timestamp;temperature;humidity
22436;DHT22;11385;50.822;4.324;2022-12-10T00:00:23;1.10;99.90
22436;DHT22;11385;50.822;4.324;2022-12-10T00:02:50;1.20;99.90
22436;DHT22;11385;50.822;4.324;2022-12-10T00:05:16;1.20;99.90
22436;DHT22;11385;50.822;4.324;2022-12-10T00:07:43;1.20;99.90
22436;DHT22;11385;50.822;4.324;2022-12-10T00:10:10;1.10;99.90
22436;DHT22;11385;50.822;4.324;2022-12-10T00:12:36;1.00;99.90
22436;DHT22;11385;50.822;4.324;2022-12-10T00:15:03;1.10;99.90
22436;DHT22;11385;50.822;4.324;2022-12-10T00:17:30;1.20;99.90
22436;DHT22;11385;50.822;4.324;2022-12-10T00:19:56;1.30;99.90
22436;DHT22;11385;50.822;4.324;2022-12-10T00:22:23;1.10;99.90
22436;DHT22;11385;50.822;4.324;2022-12-10T00:24:50;1.00;99.90
22436;DHT22;11385;50.822;4.324;2022-12-10T00:27:16;1.00;99.90
22436;DHT22;11385;50.822;4.324;2022-12-10T00:29:43;1.10;99.90
22436;DHT22;11385;50.822;4.324;2022-12-10T00:32:09;1.10;99.90
22436;DHT22;11385;50.822;4.324;2022-12-10T00:34:36;1.20;99.90
22436;DHT22;11385;50.822;4.324;2022-12-10T00:37:03;1.10;99.90
22436;DHT22;11385;50.822;4.324;2022-12-10T00:39:29;1.00;99.90
22436;DHT22;11385;50.822;4.324;2022-12-10T00:41:56;1.00;99.90
22436;DHT22;11385;50.822;4.324;2022-12-10T00:44:23;1.10;99.90
22436;DHT22;11385;50.822;4.324;2022-12-10T00:46:49;1.10;99.90
22436;DHT22;11385;50.822;4.324;2022-12-10T00:49:17;1.10;99.90
22436;DHT22;11385;50.822;4.324;2022-12-10T00:51:44;1.10;99.90
22436;DHT22;11385;50.822;4.324;2022-12-10T00:54:10;1.10;99.90
22436;DHT22;11385;50.822;4.324;2022-12-10T00:56:37;1.10;99.90
22436;DHT22;11385;50.822;4.324;2022-12-10T00:59:04;1.10;99.90
22436;DHT22;11385;50.822;4.324;2022-12-10T01:01:33;1.10;99.90
22436;DHT22;11385;50.822;4.324;2022-12-10T01:04:02;1.10;99.90
22436;DHT22;11385;50.822;4.324;2022-12-10T01:06:33;1.20;99.90
22436;DHT22;11385;50.822;4.324;2022-12-10T01:09:04;1.30;99.90
22436;DHT22;11385;50.822;4.324;2022-12-10T01:11:35;1.10;99.90
22436;DHT22;11385;50.822;4.324;2022-12-10T01:14:04;1.20;99.90
22436;DHT22;11385;50.822;4.324;2022-12-10T01:16:30;1.20;99.90
22436;DHT22;11385;50.822;4.324;2022-12-10T01:18:58;1.10;99.90
22436;DHT22;11385;50.822;4.324;2022-12-10T01:21:26;1.20;99.90
22436;DHT22;11385;50.822;4.324;2022-12-10T01:23:54;1.20;99.90
22436;DHT22;11385;50.822;4.324;2022-12-10T01:26:24;1.20;99.90
22436;DHT22;11385;50.822;4.324;2022-12-10T01:28:52;1.20;99.90
22436;DHT22;11385;50.822;4.324;2022-12-10T01:31:24;1.20;99.90
22436;DHT22;11385;50.822;4.324;2022-12-10T01:33:51;1.30;99.90
22436;DHT22;11385;50.822;4.324;2022-12-10T01:36:22;1.30;99.90
22436;DHT22;11385;50.822;4.324;2022-12-10T01:38:49;1.30;99.90
22436;DHT22;11385;50.822;4.324;2022-12-10T01:41:20;1.30;99.90
22436;DHT22;11385;50.822;4.324;2022-12-10T01:43:57;1.20;99.90
22436;DHT22;11385;50.822;4.324;2022-12-10T01:46:28;1.10;99.90
22436;DHT22;11385;50.822;4.324;2022-12-10T01:48:56;1.00;99.90
22436;DHT22;11385;50.822;4.324;2022-12-10T01:51:25;1.10;99.90
22436;DHT22;11385;50.822;4.324;2022-12-10T01:53:53;1.10;99.90
22436;DHT22;11385;50.822;4.324;2022-12-10T01:56:20;1.10;99.90
22436;DHT22;11385;50.822;4.324;2022-12-10T01:58:52;1.00;99.90
22436;DHT22;11385;50.822;4.324;2022-12-10T02:01:28;1.00;99.90
22436;DHT22;11385;50.822;4.324;2022-12-10T02:04:47;1.00;99.90
22436;DHT22;11385;50.822;4.324;2022-12-10T02:07:00;1.00;99.90
22436;DHT22;11385;50.822;4.324;2022-12-10T02:12:31;0.80;99.90
22436;DHT22;11385;50.822;4.324;2022-12-10T02:15:02;0.80;99.90
22436;DHT22;11385;50.822;4.324;2022-12-10T02:17:37;0.60;99.90
22436;DHT22;11385;50.822;4.324;2022-12-10T02:20:10;0.70;99.90
22436;DHT22;11385;50.822;4.324;2022-12-10T02:22:44;0.80;99.90
22436;DHT22;11385;50.822;4.324;2022-12-10T02:25:13;0.80;99.90
22436;DHT22;11385;50.822;4.324;2022-12-10T02:27:52;0.90;99.90
22436;DHT22;11385;50.822;4.324;2022-12-10T02:30:18;1.00;99.90
22436;DHT22;11385;50.822;4.324;2022-12-10T02:32:46;1.10;99.90
22436;DHT22;11385;50.822;4.324;2022-12-10T02:35:19;1.10;99.90
22436;DHT22;11385;50.822;4.324;2022-12-10T02:37:51;1.10;99.90
22436;DHT22;11385;50.822;4.324;2022-12-10T02:40:23;1.00;99.90
22436;DHT22;11385;50.822;4.324;2022-12-10T02:42:51;1.00;99.90
22436;DHT22;11385;50.822;4.324;2022-12-10T02:45:20;0.90;99.90
22436;DHT22;11385;50.822;4.324;2022-12-10T02:47:48;1.00;99.90
22436;DHT22;11385;50.822;4.324;2022-12-10T02:50:18;0.90;99.90
22436;DHT22;11385;50.822;4.324;2022-12-10T02:52:46;0.90;99.90
22436;DHT22;11385;50.822;4.324;2022-12-10T02:55:13;0.80;99.90
22436;DHT22;11385;50.822;4.324;2022-12-10T02:57:55;0.80;99.90
22436;DHT22;11385;50.822;4.324;2022-12-10T03:00:22;0.60;99.90
22436;DHT22;11385;50.822;4.324;2022-12-10T03:03:11;0.40;99.90
22436;DHT22;11385;50.822;4.324;2022-12-10T03:05:46;0.50;99.90
22436;DHT22;11385;50.822;4.324;2022-12-10T03:08:19;0.30;99.90
22436;DHT22;11385;50.822;4.324;2022-12-10T03:11:11;0.40;99.90
22436;DHT22;11385;50.822;4.324;2022-12-10T03:13:36;0.30;99.90
22436;DHT22;11385;50.822;4.324;2022-12-10T03:16:04;0.40;99.90
22436;DHT22;11385;50.822;4.324;2022-12-10T03:18:34;0.30;99.90
22436;DHT22;11385;50.822;4.324;2022-12-10T03:21:04;0.50;99.90
22436;DHT22;11385;50.822;4.324;2022-12-10T03:23:34;0.60;99.90
22436;DHT22;11385;50.822;4.324;2022-12-10T03:26:02;0.60;99.90
22436;DHT22;11385;50.822;4.324;2022-12-10T03:28:32;0.50;99.90
22436;DHT22;11385;50.822;4.324;2022-12-10T03:31:00;0.60;99.90
22436;DHT22;11385;50.822;4.324;2022-12-10T03:33:27;0.50;99.90
22436;DHT22;11385;50.822;4.324;2022-12-10T03:35:55;0.60;99.90
22436;DHT22;11385;50.822;4.324;2022-12-10T03:38:22;0.60;99.90
22436;DHT22;11385;50.822;4.324;2022-12-10T03:40:49;0.70;99.90
22436;DHT22;11385;50.822;4.324;2022-12-10T03:43:15;0.70;99.90
22436;DHT22;11385;50.822;4.324;2022-12-10T03:45:42;0.60;99.90
22436;DHT22;11385;50.822;4.324;2022-12-10T03:48:09;0.60;99.90
22436;DHT22;11385;50.822;4.324;2022-12-10T03:50:36;0.80;99.90
22436;DHT22;11385;50.822;4.324;2022-12-10T03:53:02;0.90;99.90
22436;DHT22;11385;50.822;4.324;2022-12-10T03:55:29;0.80;99.90
22436;DHT22;11385;50.822;4.324;2022-12-10T03:57:55;0.80;99.90
22436;DHT22;11385;50.822;4.324;2022-12-10T04:00:22;0.80;99.90
22436;DHT22;11385;50.822;4.324;2022-12-10T04:02:49;0.80;99.90
22436;DHT22;11385;50.822;4.324;2022-12-10T04:05:15;0.80;99.90
22436;DHT22;11385;50.822;4.324;2022-12-10T04:07:42;0.90;99.90
22436;DHT22;11385;50.822;4.324;2022-12-10T04:10:09;0.90;99.90
22436;DHT22;11385;50.822;4.324;2022-12-10T04:12:36;0.90;99.90
22436;DHT22;11385;50.822;4.324;2022-12-10T04:15:03;0.90;99.90
22436;DHT22;11385;50.822;4.324;2022-12-10T04:17:36;0.90;99.90
22436;DHT22;11385;50.822;4.324;2022-12-10T04:20:03;1.00;99.90
22436;DHT22;11385;50.822;4.324;2022-12-10T04:22:29;1.00;99.90
22436;DHT22;11385;50.822;4.324;2022-12-10T04:25:02;0.90;99.90
22436;DHT22;11385;50.822;4.324;2022-12-10T04:27:38;0.90;99.90
22436;DHT22;11385;50.822;4.324;2022-12-10T04:30:08;0.70;99.90
22436;DHT22;11385;50.822;4.324;2022-12-10T04:32:36;0.70;99.90
22436;DHT22;11385;50.822;4.324;2022-12-10T04:35:03;0.70;99.90
22436;DHT22;11385;50.822;4.324;2022-12-10T04:37:30;0.70;99.90
22436;DHT22;11385;50.822;4.324;2022-12-10T04:39:57;0.60;99.90
22436;DHT22;11385;50.822;4.324;2022-12-10T04:42:23;0.50;99.90
22436;DHT22;11385;50.822;4.324;2022-12-10T04:44:50;0.70;99.90
22436;DHT22;11385;50.822;4.324;2022-12-10T04:47:17;0.70;99.90
22436;DHT22;11385;50.822;4.324;2022-12-10T04:49:44;0.80;99.90
22436;DHT22;11385;50.822;4.324;2022-12-10T04:52:12;0.90;99.90
22436;DHT22;11385;50.822;4.324;2022-12-10T04:54:40;0.80;99.90
22436;DHT22;11385;50.822;4.324;2022-12-10T04:57:07;0.90;99.90
22436;DHT22;11385;50.822;4.324;2022-12-10T04:59:35;0.90;99.90
22436;DHT22;11385;50.822;4.324;2022-12-10T05:02:03;0.90;99.90
22436;DHT22;11385;50.822;4.324;2022-12-10T05:04:30;0.90;99.90
22436;DHT22;11385;50.822;4.324;2022-12-10T05:06:57;0.90;99.90
22436;DHT22;11385;50.822;4.324;2022-12-10T05:09:23;0.80;99.90
22436;DHT22;11385;50.822;4.324;2022-12-10T05:11:50;0.70;99.90
22436;DHT22;11385;50.822;4.324;2022-12-10T05:14:17;0.60;99.90
22436;DHT22;11385;50.822;4.324;2022-12-10T05:16:43;0.60;99.90
22436;DHT22;11385;50.822;4.324;2022-12-10T05:19:10;0.70;99.90
22436;DHT22;11385;50.822;4.324;2022-12-10T05:21:37;0.60;99.90
22436;DHT22;11385;50.822;4.324;2022-12-10T05:24:09;0.50;99.90
22436;DHT22;11385;50.822;4.324;2022-12-10T05:26:36;0.40;99.90
22436;DHT22;11385;50.822;4.324;2022-12-10T05:29:03;0.30;99.90
22436;DHT22;11385;50.822;4.324;2022-12-10T05:31:30;0.40;99.90
22436;DHT22;11385;50.822;4.324;2022-12-10T05:33:58;0.50;99.90
22436;DHT22;11385;50.822;4.324;2022-12-10T05:36:27;0.60;99.90
22436;DHT22;11385;50.822;4.324;2022-12-10T05:38:55;0.70;99.90
22436;DHT22;11385;50.822;4.324;2022-12-10T05:41:24;0.70;99.90
22436;DHT22;11385;50.822;4.324;2022-12-10T05:43:53;0.70;99.90
22436;DHT22;11385;50.822;4.324;2022-12-10T05:46:22;0.70;99.90
22436;DHT22;11385;50.822;4.324;2022-12-10T05:48:50;0.60;99.90
22436;DHT22;11385;50.822;4.324;2022-12-10T05:51:20;0.60;99.90
22436;DHT22;11385;50.822;4.324;2022-12-10T05:53:47;0.70;99.90
22436;DHT22;11385;50.822;4.324;2022-12-10T05:56:16;0.70;99.90
22436;DHT22;11385;50.822;4.324;2022-12-10T05:58:46;0.60;99.90
22436;DHT22;11385;50.822;4.324;2022-12-10T06:01:15;0.70;99.90
22436;DHT22;11385;50.822;4.324;2022-12-10T06:03:42;0.60;99.90
22436;DHT22;11385;50.822;4.324;2022-12-10T06:06:10;0.60;99.90
22436;DHT22;11385;50.822;4.324;2022-12-10T06:08:37;0.40;99.90
22436;DHT22;11385;50.822;4.324;2022-12-10T06:11:06;0.50;99.90
22436;DHT22;11385;50.822;4.324;2022-12-10T06:13:33;0.40;99.90
22436;DHT22;11385;50.822;4.324;2022-12-10T06:16:05;0.50;99.90
22436;DHT22;11385;50.822;4.324;2022-12-10T06:18:31;0.70;99.90
22436;DHT22;11385;50.822;4.324;2022-12-10T06:20:58;0.40;99.90
22436;DHT22;11385;50.822;4.324;2022-12-10T06:23:24;0.40;99.90
22436;DHT22;11385;50.822;4.324;2022-12-10T06:25:51;0.50;99.90
22436;DHT22;11385;50.822;4.324;2022-12-10T06:28:18;0.40;99.90
22436;DHT22;11385;50.822;4.324;2022-12-10T06:30:44;0.50;99.90
22436;DHT22;11385;50.822;4.324;2022-12-10T06:33:11;0.40;99.90
22436;DHT22;11385;50.822;4.324;2022-12-10T06:35:38;0.50;99.90
22436;DHT22;11385;50.822;4.324;2022-12-10T06:38:04;0.50;99.90
22436;DHT22;11385;50.822;4.324;2022-12-10T06:40:31;0.60;99.90
22436;DHT22;11385;50.822;4.324;2022-12-10T06:42:58;0.70;99.90
22436;DHT22;11385;50.822;4.324;2022-12-10T06:45:24;0.70;99.90
22436;DHT22;11385;50.822;4.324;2022-12-10T06:47:51;0.60;99.90
22436;DHT22;11385;50.822;4.324;2022-12-10T06:50:17;0.60;99.90
22436;DHT22;11385;50.822;4.324;2022-12-10T06:52:44;0.60;99.90
22436;DHT22;11385;50.822;4.324;2022-12-10T06:55:11;0.30;99.90
22436;DHT22;11385;50.822;4.324;2022-12-10T06:57:37;0.30;99.90
22436;DHT22;11385;50.822;4.324;2022-12-10T07:00:05;0.40;99.90
22436;DHT22;11385;50.822;4.324;2022-12-10T07:02:31;0.40;99.90
22436;DHT22;11385;50.822;4.324;2022-12-10T07:04:58;0.50;99.90
22436;DHT22;11385;50.822;4.324;2022-12-10T07:07:25;0.60;99.90
22436;DHT22;11385;50.822;4.324;2022-12-10T07:09:51;0.50;99.90
22436;DHT22;11385;50.822;4.324;2022-12-10T07:12:18;0.20;99.90
22436;DHT22;11385;50.822;4.324;2022-12-10T07:14:45;0.10;99.90
22436;DHT22;11385;50.822;4.324;2022-12-10T07:17:11;0.10;99.90
22436;DHT22;11385;50.822;4.324;2022-12-10T07:19:38;0.10;99.90
22436;DHT22;11385;50.822;4.324;2022-12-10T07:22:04;0.10;99.90
22436;DHT22;11385;50.822;4.324;2022-12-10T07:24:31;0.00;99.90
22436;DHT22;11385;50.822;4.324;2022-12-10T07:26:58;0.00;99.90
22436;DHT22;11385;50.822;4.324;2022-12-10T07:29:25;0.00;99.90
22436;DHT22;11385;50.822;4.324;2022-12-10T07:31:52;0.00;99.90
22436;DHT22;11385;50.822;4.324;2022-12-10T07:34:20;0.00;99.90
22436;DHT22;11385;50.822;4.324;2022-12-10T07:36:47;-0.10;99.90
22436;DHT22;11385;50.822;4.324;2022-12-10T07:39:14;-0.10;99.90
22436;DHT22;11385;50.822;4.324;2022-12-10T07:41:47;0.00;99.90
22436;DHT22;11385;50.822;4.324;2022-12-10T07:44:15;0.00;99.90
22436;DHT22;11385;50.822;4.324;2022-12-10T07:46:44;0.10;99.90
22436;DHT22;11385;50.822;4.324;2022-12-10T07:49:11;0.20;99.90
22436;DHT22;11385;50.822;4.324;2022-12-10T07:51:37;0.20;99.90
22436;DHT22;11385;50.822;4.324;2022-12-10T07:54:04;0.20;99.90
22436;DHT22;11385;50.822;4.324;2022-12-10T07:56:31;0.20;99.90
22436;DHT22;11385;50.822;4.324;2022-12-10T07:58:58;0.30;99.90
22436;DHT22;11385;50.822;4.324;2022-12-10T08:01:26;0.40;99.90
22436;DHT22;11385;50.822;4.324;2022-12-10T08:03:54;0.50;99.90
22436;DHT22;11385;50.822;4.324;2022-12-10T08:06:25;0.20;99.90
22436;DHT22;11385;50.822;4.324;2022-12-10T08:08:52;0.20;99.90
22436;DHT22;11385;50.822;4.324;2022-12-10T08:11:20;0.30;99.90
22436;DHT22;11385;50.822;4.324;2022-12-10T08:13:48;0.20;99.90
22436;DHT22;11385;50.822;4.324;2022-12-10T08:16:17;0.30;99.90
22436;DHT22;11385;50.822;4.324;2022-12-10T08:18:44;0.20;99.90
22436;DHT22;11385;50.822;4.324;2022-12-10T08:21:15;-0.10;99.90
22436;DHT22;11385;50.822;4.324;2022-12-10T08:23:42;-0.10;99.90
22436;DHT22;11385;50.822;4.324;2022-12-10T08:26:12;0.00;99.90
22436;DHT22;11385;50.822;4.324;2022-12-10T08:28:40;0.00;99.90
22436;DHT22;11385;50.822;4.324;2022-12-10T08:31:08;0.00;99.90
22436;DHT22;11385;50.822;4.324;2022-12-10T08:33:36;0.10;99.90
22436;DHT22;11385;50.822;4.324;2022-12-10T08:36:04;0.20;99.90
22436;DHT22;11385;50.822;4.324;2022-12-10T08:38:32;0.10;99.90
22436;DHT22;11385;50.822;4.324;2022-12-10T08:40:59;0.30;99.90
22436;DHT22;11385;50.822;4.324;2022-12-10T08:43:28;0.50;99.90
22436;DHT22;11385;50.822;4.324;2022-12-10T08:45:57;0.50;99.90
22436;DHT22;11385;50.822;4.324;2022-12-10T08:48:24;0.50;99.90
22436;DHT22;11385;50.822;4.324;2022-12-10T08:50:51;0.50;99.90
22436;DHT22;11385;50.822;4.324;2022-12-10T08:53:17;0.40;99.90
22436;DHT22;11385;50.822;4.324;2022-12-10T08:55:44;0.50;99.90
22436;DHT22;11385;50.822;4.324;2022-12-10T08:58:11;0.60;99.90
22436;DHT22;11385;50.822;4.324;2022-12-10T09:00:37;0.70;99.90
22436;DHT22;11385;50.822;4.324;2022-12-10T09:03:04;0.70;99.90
22436;DHT22;11385;50.822;4.324;2022-12-10T09:05:30;0.70;99.90
22436;DHT22;11385;50.822;4.324;2022-12-10T09:07:57;0.70;99.90
22436;DHT22;11385;50.822;4.324;2022-12-10T09:10:24;0.60;99.90
22436;DHT22;11385;50.822;4.324;2022-12-10T09:12:50;0.60;99.90
22436;DHT22;11385;50.822;4.324;2022-12-10T09:15:17;0.70;99.90
22436;DHT22;11385;50.822;4.324;2022-12-10T09:17:43;0.70;99.90
22436;DHT22;11385;50.822;4.324;2022-12-10T09:20:10;0.70;99.90
22436;DHT22;11385;50.822;4.324;2022-12-10T09:22:37;0.80;99.90
22436;DHT22;11385;50.822;4.324;2022-12-10T09:25:05;0.90;99.90
22436;DHT22;11385;50.822;4.324;2022-12-10T09:27:33;0.90;99.90
22436;DHT22;11385;50.822;4.324;2022-12-10T09:29:59;1.00;99.90
22436;DHT22;11385;50.822;4.324;2022-12-10T09:32:26;1.00;99.90
22436;DHT22;11385;50.822;4.324;2022-12-10T09:34:53;0.90;99.90
22436;DHT22;11385;50.822;4.324;2022-12-10T09:37:20;1.00;99.90
22436;DHT22;11385;50.822;4.324;2022-12-10T09:39:46;1.00;99.90
22436;DHT22;11385;50.822;4.324;2022-12-10T09:42:19;1.00;99.90
22436;DHT22;11385;50.822;4.324;2022-12-10T09:45:01;1.00;99.90
22436;DHT22;11385;50.822;4.324;2022-12-10T09:47:35;1.00;99.90
22436;DHT22;11385;50.822;4.324;2022-12-10T09:50:10;0.80;99.90
22436;DHT22;11385;50.822;4.324;2022-12-10T09:52:38;0.60;99.90
22436;DHT22;11385;50.822;4.324;2022-12-10T09:55:10;0.50;99.90
22436;DHT22;11385;50.822;4.324;2022-12-10T09:57:40;0.80;99.90
22436;DHT22;11385;50.822;4.324;2022-12-10T10:00:18;1.00;99.90
22436;DHT22;11385;50.822;4.324;2022-12-10T10:02:44;1.10;99.90
22436;DHT22;11385;50.822;4.324;2022-12-10T10:05:32;1.20;99.90
22436;DHT22;11385;50.822;4.324;2022-12-10T10:08:02;1.20;99.90
22436;DHT22;11385;50.822;4.324;2022-12-10T10:10:33;1.20;99.90
22436;DHT22;11385;50.822;4.324;2022-12-10T10:13:11;1.20;99.90
22436;DHT22;11385;50.822;4.324;2022-12-10T10:15:41;1.20;99.90
22436;DHT22;11385;50.822;4.324;2022-12-10T10:20:46;1.40;99.90
22436;DHT22;11385;50.822;4.324;2022-12-10T10:23:15;1.40;99.90
22436;DHT22;11385;50.822;4.324;2022-12-10T10:25:43;1.40;99.90
22436;DHT22;11385;50.822;4.324;2022-12-10T10:28:12;1.40;99.90
22436;DHT22;11385;50.822;4.324;2022-12-10T10:30:41;1.60;99.90
22436;DHT22;11385;50.822;4.324;2022-12-10T10:33:11;1.60;99.90
22436;DHT22;11385;50.822;4.324;2022-12-10T10:35:55;1.70;99.90
22436;DHT22;11385;50.822;4.324;2022-12-10T10:38:27;1.70;99.90
22436;DHT22;11385;50.822;4.324;2022-12-10T10:40:57;1.80;99.90
22436;DHT22;11385;50.822;4.324;2022-12-10T10:43:30;1.60;99.90
22436;DHT22;11385;50.822;4.324;2022-12-10T10:46:01;1.80;99.90
22436;DHT22;11385;50.822;4.324;2022-12-10T10:48:28;1.80;99.90
22436;DHT22;11385;50.822;4.324;2022-12-10T10:51:28;1.80;99.90
22436;DHT22;11385;50.822;4.324;2022-12-10T10:53:45;1.60;99.90
22436;DHT22;11385;50.822;4.324;2022-12-10T10:56:16;1.30;99.90
22436;DHT22;11385;50.822;4.324;2022-12-10T10:58:54;1.20;99.90
22436;DHT22;11385;50.822;4.324;2022-12-10T11:01:24;1.50;99.90
22436;DHT22;11385;50.822;4.324;2022-12-10T11:03:56;1.70;99.90
22436;DHT22;11385;50.822;4.324;2022-12-10T11:06:25;1.60;99.90
22436;DHT22;11385;50.822;4.324;2022-12-10T11:08:56;1.50;99.90
22436;DHT22;11385;50.822;4.324;2022-12-10T11:11:32;1.60;99.90
22436;DHT22;11385;50.822;4.324;2022-12-10T11:16:37;1.70;99.90
22436;DHT22;11385;50.822;4.324;2022-12-10T11:19:04;1.80;99.90
22436;DHT22;11385;50.822;4.324;2022-12-10T11:21:34;1.70;99.90
22436;DHT22;11385;50.822;4.324;2022-12-10T11:24:09;1.90;99.90
22436;DHT22;11385;50.822;4.324;2022-12-10T11:26:57;1.90;99.90
22436;DHT22;11385;50.822;4.324;2022-12-10T11:29:36;1.90;99.90
22436;DHT22;11385;50.822;4.324;2022-12-10T11:32:23;1.90;99.90
22436;DHT22;11385;50.822;4.324;2022-12-10T11:35:01;1.80;99.90
22436;DHT22;11385;50.822;4.324;2022-12-10T11:37:34;2.00;99.90
22436;DHT22;11385;50.822;4.324;2022-12-10T11:40:14;1.90;99.90
22436;DHT22;11385;50.822;4.324;2022-12-10T11:45:44;1.90;99.90
22436;DHT22;11385;50.822;4.324;2022-12-10T11:48:31;2.10;99.90
22436;DHT22;11385;50.822;4.324;2022-12-10T11:51:01;2.00;99.90
22436;DHT22;11385;50.822;4.324;2022-12-10T11:53:48;2.00;99.90
22436;DHT22;11385;50.822;4.324;2022-12-10T11:59:12;1.90;99.90
22436;DHT22;11385;50.822;4.324;2022-12-10T12:01:49;1.80;99.90
22436;DHT22;11385;50.822;4.324;2022-12-10T12:04:51;1.80;99.90
22436;DHT22;11385;50.822;4.324;2022-12-10T12:07:33;2.00;99.90
22436;DHT22;11385;50.822;4.324;2022-12-10T12:12:58;2.00;99.90
22436;DHT22;11385;50.822;4.324;2022-12-10T12:15:31;2.10;99.90
22436;DHT22;11385;50.822;4.324;2022-12-10T12:18:10;2.20;99.90
22436;DHT22;11385;50.822;4.324;2022-12-10T12:20:38;2.30;99.90
22436;DHT22;11385;50.822;4.324;2022-12-10T12:23:12;2.10;99.90
22436;DHT22;11385;50.822;4.324;2022-12-10T12:25:44;1.90;99.90
22436;DHT22;11385;50.822;4.324;2022-12-10T12:28:14;2.10;99.90
22436;DHT22;11385;50.822;4.324;2022-12-10T12:30:43;2.10;99.90
22436;DHT22;11385;50.822;4.324;2022-12-10T12:33:18;2.00;99.90
22436;DHT22;11385;50.822;4.324;2022-12-10T12:35:48;1.90;99.90
22436;DHT22;11385;50.822;4.324;2022-12-10T12:38:28;1.90;99.90
22436;DHT22;11385;50.822;4.324;2022-12-10T12:41:01;1.70;99.90
22436;DHT22;11385;50.822;4.324;2022-12-10T12:43:34;1.50;99.90
22436;DHT22;11385;50.822;4.324;2022-12-10T12:45:59;1.60;99.90
22436;DHT22;11385;50.822;4.324;2022-12-10T12:48:49;1.80;99.90
22436;DHT22;11385;50.822;4.324;2022-12-10T12:51:22;2.10;99.90
22436;DHT22;11385;50.822;4.324;2022-12-10T12:53:48;2.20;99.90
22436;DHT22;11385;50.822;4.324;2022-12-10T12:56:34;2.00;99.90
22436;DHT22;11385;50.822;4.324;2022-12-10T12:59:09;2.00;99.90
22436;DHT22;11385;50.822;4.324;2022-12-10T13:01:49;2.10;99.90
22436;DHT22;11385;50.822;4.324;2022-12-10T13:04:16;2.00;99.90
22436;DHT22;11385;50.822;4.324;2022-12-10T13:07:08;2.00;99.90
22436;DHT22;11385;50.822;4.324;2022-12-10T13:09:25;2.10;99.90
22436;DHT22;11385;50.822;4.324;2022-12-10T13:12:24;2.10;99.90
22436;DHT22;11385;50.822;4.324;2022-12-10T13:15:02;2.10;99.90
22436;DHT22;11385;50.822;4.324;2022-12-10T13:17:34;2.20;99.90
22436;DHT22;11385;50.822;4.324;2022-12-10T13:22:59;2.30;99.90
22436;DHT22;11385;50.822;4.324;2022-12-10T13:25:38;2.40;99.90
22436;DHT22;11385;50.822;4.324;2022-12-10T13:28:29;2.30;99.90
22436;DHT22;11385;50.822;4.324;2022-12-10T13:33:45;2.30;99.90
22436;DHT22;11385;50.822;4.324;2022-12-10T13:35:59;2.30;99.90
22436;DHT22;11385;50.822;4.324;2022-12-10T13:38:27;2.30;99.90
22436;DHT22;11385;50.822;4.324;2022-12-10T13:40:59;2.40;99.90
22436;DHT22;11385;50.822;4.324;2022-12-10T13:43:38;2.50;99.90
22436;DHT22;11385;50.822;4.324;2022-12-10T13:46:23;2.40;99.90
22436;DHT22;11385;50.822;4.324;2022-12-10T13:48:51;2.40;99.90
22436;DHT22;11385;50.822;4.324;2022-12-10T13:51:32;2.50;99.90
22436;DHT22;11385;50.822;4.324;2022-12-10T13:54:25;2.60;99.90
22436;DHT22;11385;50.822;4.324;2022-12-10T13:59:42;2.60;99.90
22436;DHT22;11385;50.822;4.324;2022-12-10T14:02:45;2.50;99.90
22436;DHT22;11385;50.822;4.324;2022-12-10T14:05:24;2.50;99.90
22436;DHT22;11385;50.822;4.324;2022-12-10T14:07:53;2.60;99.90
22436;DHT22;11385;50.822;4.324;2022-12-10T14:10:27;2.60;99.90
22436;DHT22;11385;50.822;4.324;2022-12-10T14:12:54;2.50;99.90
22436;DHT22;11385;50.822;4.324;2022-12-10T14:15:23;2.60;99.90
22436;DHT22;11385;50.822;4.324;2022-12-10T14:17:56;2.50;99.90
22436;DHT22;11385;50.822;4.324;2022-12-10T14:20:24;2.60;99.90
22436;DHT22;11385;50.822;4.324;2022-12-10T14:22:53;2.50;99.90
22436;DHT22;11385;50.822;4.324;2022-12-10T14:25:42;2.20;99.90
22436;DHT22;11385;50.822;4.324;2022-12-10T14:28:12;2.40;99.90
22436;DHT22;11385;50.822;4.324;2022-12-10T14:30:42;2.50;99.90
22436;DHT22;11385;50.822;4.324;2022-12-10T14:33:12;2.50;99.90
22436;DHT22;11385;50.822;4.324;2022-12-10T14:35:41;2.50;99.90
22436;DHT22;11385;50.822;4.324;2022-12-10T14:38:14;2.50;99.90
22436;DHT22;11385;50.822;4.324;2022-12-10T14:40:41;2.20;99.90
22436;DHT22;11385;50.822;4.324;2022-12-10T14:43:14;2.20;99.90
22436;DHT22;11385;50.822;4.324;2022-12-10T14:45:50;2.20;99.90
22436;DHT22;11385;50.822;4.324;2022-12-10T14:48:17;2.30;99.90
22436;DHT22;11385;50.822;4.324;2022-12-10T14:50:45;2.20;99.90
22436;DHT22;11385;50.822;4.324;2022-12-10T14:53:16;2.30;99.90
22436;DHT22;11385;50.822;4.324;2022-12-10T14:55:45;2.20;99.90
22436;DHT22;11385;50.822;4.324;2022-12-10T14:58:18;2.20;99.90
22436;DHT22;11385;50.822;4.324;2022-12-10T15:00:46;2.20;99.90
22436;DHT22;11385;50.822;4.324;2022-12-10T15:03:23;2.30;99.90
22436;DHT22;11385;50.822;4.324;2022-12-10T15:05:53;2.40;99.90
22436;DHT22;11385;50.822;4.324;2022-12-10T15:08:24;2.30;99.90
22436;DHT22;11385;50.822;4.324;2022-12-10T15:10:50;2.40;99.90
22436;DHT22;11385;50.822;4.324;2022-12-10T15:13:23;2.20;99.90
22436;DHT22;11385;50.822;4.324;2022-12-10T15:15:52;2.00;99.90
22436;DHT22;11385;50.822;4.324;2022-12-10T15:18:36;2.00;99.90
22436;DHT22;11385;50.822;4.324;2022-12-10T15:21:15;2.20;99.90
22436;DHT22;11385;50.822;4.324;2022-12-10T15:23:44;2.20;99.90
22436;DHT22;11385;50.822;4.324;2022-12-10T15:26:21;2.20;99.90
22436;DHT22;11385;50.822;4.324;2022-12-10T15:28:49;2.20;99.90
22436;DHT22;11385;50.822;4.324;2022-12-10T15:31:31;2.30;99.90
22436;DHT22;11385;50.822;4.324;2022-12-10T15:34:01;2.40;99.90
22436;DHT22;11385;50.822;4.324;2022-12-10T15:36:35;2.40;99.90
22436;DHT22;11385;50.822;4.324;2022-12-10T15:39:30;2.40;99.90
22436;DHT22;11385;50.822;4.324;2022-12-10T15:41:59;2.40;99.90
22436;DHT22;11385;50.822;4.324;2022-12-10T15:44:44;2.40;99.90
22436;DHT22;11385;50.822;4.324;2022-12-10T15:47:19;2.40;99.90
22436;DHT22;11385;50.822;4.324;2022-12-10T15:49:49;2.50;99.90
22436;DHT22;11385;50.822;4.324;2022-12-10T15:52:21;2.40;99.90
22436;DHT22;11385;50.822;4.324;2022-12-10T15:54:51;2.20;99.90
22436;DHT22;11385;50.822;4.324;2022-12-10T15:57:23;2.40;99.90
22436;DHT22;11385;50.822;4.324;2022-12-10T15:59:53;2.40;99.90
22436;DHT22;11385;50.822;4.324;2022-12-10T16:02:34;2.30;99.90
22436;DHT22;11385;50.822;4.324;2022-12-10T16:04:58;2.50;99.90
22436;DHT22;11385;50.822;4.324;2022-12-10T16:07:25;2.60;99.90
22436;DHT22;11385;50.822;4.324;2022-12-10T16:09:51;2.50;99.90
22436;DHT22;11385;50.822;4.324;2022-12-10T16:12:18;2.60;99.90
22436;DHT22;11385;50.822;4.324;2022-12-10T16:14:49;2.60;99.90
22436;DHT22;11385;50.822;4.324;2022-12-10T16:17:17;2.50;99.90
22436;DHT22;11385;50.822;4.324;2022-12-10T16:19:44;2.30;99.90
22436;DHT22;11385;50.822;4.324;2022-12-10T16:22:10;2.30;99.90
22436;DHT22;11385;50.822;4.324;2022-12-10T16:24:37;2.30;99.90
22436;DHT22;11385;50.822;4.324;2022-12-10T16:27:11;2.50;99.90
22436;DHT22;11385;50.822;4.324;2022-12-10T16:29:39;2.50;99.90